Time;durP1;ratioP1;P1;durP2;ratioP2;P2;SDS_P1;SDS_P2;PMS_P1;PMS_P2;Temp;Humidity;BMP_temperature;BMP_pressure;BME280_temperature;BME280_humidity;BME280_pressure;Samples;Min_cycle;Max_cycle;Signal;HPM_P1;HPM_P2
2022/10/29 00:00:37;;;;;;;47.80;19.15;;;;;;;;;;8367612;28;20102;-87
2022/10/29 00:04:59;;;;;;;49.10;18.60;;;;;;;;;;8353326;28;20191;-89
2022/10/29 00:09:04;;;;;;;51.80;21.73;;;;;;;;;;8355185;28;20067;-86
2022/10/29 00:13:06;;;;;;;49.45;21.80;;;;;;;;;;8367259;28;20381;-87
2022/10/29 00:17:09;;;;;;;47.22;22.13;;;;;;;;;;8360319;28;20053;-88
2022/10/29 00:21:13;;;;;;;43.45;19.60;;;;;;;;;;8367395;28;20049;-88
2022/10/29 00:25:17;;;;;;;47.20;19.50;;;;;;;;;;8366218;28;20107;-87
2022/10/29 00:29:19;;;;;;;45.33;18.77;;;;;;;;;;8352853;28;20053;-88
2022/10/29 00:33:22;;;;;;;43.03;17.80;;;;;;;;;;8366639;28;20045;-88
2022/10/29 00:37:25;;;;;;;36.83;17.48;;;;;;;;;;8366767;28;20049;-88
2022/10/29 00:41:30;;;;;;;41.67;17.92;;;;;;;;;;8366326;28;20067;-92
2022/10/29 00:45:32;;;;;;;41.13;19.58;;;;;;;;;;8366689;28;20051;-92
2022/10/29 00:49:36;;;;;;;38.25;19.15;;;;;;;;;;8365617;28;20386;-89
2022/10/29 00:53:41;;;;;;;34.33;17.20;;;;;;;;;;8366015;28;20068;-92
2022/10/29 00:57:50;;;;;;;38.78;19.08;;;;;;;;;;8365974;28;20045;-86
2022/10/29 01:01:54;;;;;;;42.83;19.17;;;;;;;;;;8365360;28;20061;-87
2022/10/29 01:05:57;;;;;;;39.72;17.77;;;;;;;;;;8366176;28;20393;-87
2022/10/29 01:10:00;;;;;;;34.75;16.80;;;;;;;;;;8365904;28;20048;-91
2022/10/29 01:14:16;;;;;;;37.58;16.70;;;;;;;;;;8365819;28;20389;-86
2022/10/29 01:18:22;;;;;;;35.38;16.23;;;;;;;;;;8364646;28;20560;-86
2022/10/29 01:22:30;;;;;;;33.42;15.02;;;;;;;;;;8365705;28;20049;-87
2022/10/29 01:27:01;;;;;;;38.58;15.52;;;;;;;;;;8364746;28;20464;-86
2022/10/29 01:31:18;;;;;;;41.70;16.58;;;;;;;;;;8321902;28;20484;-86
2022/10/29 01:35:27;;;;;;;35.42;16.73;;;;;;;;;;8364971;28;20044;-89
2022/10/29 01:39:40;;;;;;;36.63;15.50;;;;;;;;;;8364830;28;20048;-86
2022/10/29 01:43:47;;;;;;;33.63;15.75;;;;;;;;;;8363736;28;20082;-92
2022/10/29 01:47:56;;;;;;;28.38;15.05;;;;;;;;;;8346380;28;20045;-86
2022/10/29 01:52:01;;;;;;;34.30;16.00;;;;;;;;;;8350191;28;20083;-87
2022/10/29 01:56:04;;;;;;;36.88;16.92;;;;;;;;;;8359121;28;20056;-86
2022/10/29 02:00:09;;;;;;;42.45;17.50;;;;;;;;;;8352074;28;20117;-93
2022/10/29 02:04:30;;;;;;;37.25;16.13;;;;;;;;;;8317835;28;20057;-92
2022/10/29 02:08:40;;;;;;;37.65;16.83;;;;;;;;;;8356913;28;20733;-87
2022/10/29 02:12:47;;;;;;;40.08;17.60;;;;;;;;;;8360216;28;20037;-87
2022/10/29 02:16:51;;;;;;;37.25;17.95;;;;;;;;;;8354843;28;20103;-87
2022/10/29 02:20:55;;;;;;;37.03;16.17;;;;;;;;;;8361867;28;20488;-92
2022/10/29 02:24:57;;;;;;;44.35;18.17;;;;;;;;;;8356416;28;20076;-91
2022/10/29 02:29:00;;;;;;;34.22;16.88;;;;;;;;;;8356156;28;20057;-87
2022/10/29 02:33:03;;;;;;;41.88;16.80;;;;;;;;;;8357788;28;20053;-88
2022/10/29 02:37:07;;;;;;;37.70;16.70;;;;;;;;;;8350677;28;20087;-89
2022/10/29 02:41:09;;;;;;;49.17;18.23;;;;;;;;;;8357820;28;20551;-88
2022/10/29 02:45:11;;;;;;;40.25;17.85;;;;;;;;;;8357421;28;20481;-87
2022/10/29 02:49:14;;;;;;;37.92;16.08;;;;;;;;;;8354079;28;20065;-86
2022/10/29 02:53:18;;;;;;;38.47;16.85;;;;;;;;;;8355575;28;20485;-86
2022/10/29 02:57:20;;;;;;;43.03;19.40;;;;;;;;;;8353639;28;20041;-90
2022/10/29 03:01:23;;;;;;;49.40;19.85;;;;;;;;;;8357842;28;20151;-87
2022/10/29 03:05:26;;;;;;;47.15;19.63;;;;;;;;;;8351029;28;20049;-86
2022/10/29 03:09:30;;;;;;;47.65;18.33;;;;;;;;;;8357230;28;20036;-88
2022/10/29 03:13:32;;;;;;;44.45;19.85;;;;;;;;;;8350048;28;20543;-86
2022/10/29 03:17:35;;;;;;;48.58;19.33;;;;;;;;;;8355395;28;20049;-91
2022/10/29 03:21:37;;;;;;;48.80;19.73;;;;;;;;;;8349788;28;20042;-90
2022/10/29 03:25:41;;;;;;;48.85;19.25;;;;;;;;;;8352777;28;20045;-86
2022/10/29 03:29:44;;;;;;;44.75;17.95;;;;;;;;;;8351101;28;20087;-93
2022/10/29 03:33:46;;;;;;;39.72;18.75;;;;;;;;;;8358219;28;20041;-91
2022/10/29 03:37:50;;;;;;;36.10;16.77;;;;;;;;;;8361618;28;20091;-87
2022/10/29 03:41:54;;;;;;;42.10;18.67;;;;;;;;;;8362540;28;20488;-86
2022/10/29 03:45:57;;;;;;;36.30;16.85;;;;;;;;;;8348010;28;20046;-86
2022/10/29 03:50:00;;;;;;;35.15;16.77;;;;;;;;;;8361067;28;20492;-90
2022/10/29 03:54:02;;;;;;;35.15;15.43;;;;;;;;;;8358897;28;20488;-85
2022/10/29 03:58:06;;;;;;;31.52;16.27;;;;;;;;;;8355343;28;20050;-87
2022/10/29 04:02:11;;;;;;;33.88;15.95;;;;;;;;;;8355820;28;20061;-85
2022/10/29 04:06:17;;;;;;;41.85;18.25;;;;;;;;;;8356920;28;20128;-93
2022/10/29 04:10:19;;;;;;;33.35;16.73;;;;;;;;;;8362967;28;20072;-91
2022/10/29 04:14:23;;;;;;;33.78;17.17;;;;;;;;;;8358594;28;20044;-92
2022/10/29 04:18:25;;;;;;;37.33;20.15;;;;;;;;;;8365236;28;20491;-87
2022/10/29 04:22:28;;;;;;;26.65;16.13;;;;;;;;;;8363784;28;20056;-87
2022/10/29 04:26:30;;;;;;;27.38;14.40;;;;;;;;;;8363656;28;20128;-86
2022/10/29 04:30:34;;;;;;;27.95;14.30;;;;;;;;;;8364741;28;20045;-88
2022/10/29 04:34:36;;;;;;;35.38;19.52;;;;;;;;;;8366216;28;20087;-87
2022/10/29 04:38:39;;;;;;;28.67;14.55;;;;;;;;;;8362070;28;20503;-90
2022/10/29 04:42:41;;;;;;;26.58;12.85;;;;;;;;;;8366471;28;20044;-86
2022/10/29 04:46:45;;;;;;;26.63;15.52;;;;;;;;;;8343667;28;20516;-85
2022/10/29 04:50:47;;;;;;;20.30;11.02;;;;;;;;;;8366649;28;20079;-85
2022/10/29 04:54:50;;;;;;;17.45;10.15;;;;;;;;;;8365693;28;20041;-92
2022/10/29 04:58:52;;;;;;;22.85;11.45;;;;;;;;;;8365000;28;20052;-92
2022/10/29 05:02:56;;;;;;;24.13;11.32;;;;;;;;;;8359761;28;20053;-91
2022/10/29 05:06:59;;;;;;;15.52;7.90;;;;;;;;;;8346523;28;20049;-90
2022/10/29 05:11:08;;;;;;;15.82;8.35;;;;;;;;;;8357367;28;20048;-92
2022/10/29 05:15:11;;;;;;;13.75;7.20;;;;;;;;;;8349694;28;20642;-94
2022/10/29 05:19:15;;;;;;;17.92;11.15;;;;;;;;;;8366096;28;20053;-89
2022/10/29 05:23:17;;;;;;;12.35;7.57;;;;;;;;;;8365781;28;20044;-86
2022/10/29 05:27:19;;;;;;;16.88;7.95;;;;;;;;;;8364940;28;20542;-87
2022/10/29 05:31:22;;;;;;;14.70;8.10;;;;;;;;;;8365882;28;20047;-92
2022/10/29 05:35:26;;;;;;;14.07;8.32;;;;;;;;;;8361116;28;20432;-87
2022/10/29 05:39:29;;;;;;;15.65;9.45;;;;;;;;;;8364532;28;20119;-88
2022/10/29 05:43:31;;;;;;;14.90;8.27;;;;;;;;;;8360209;28;20041;-92
2022/10/29 05:47:34;;;;;;;16.83;10.40;;;;;;;;;;8365377;28;20072;-84
2022/10/29 05:51:38;;;;;;;20.10;10.98;;;;;;;;;;8363615;28;20051;-88
2022/10/29 05:55:41;;;;;;;14.88;8.43;;;;;;;;;;8347340;28;20076;-84
2022/10/29 05:59:43;;;;;;;15.35;7.45;;;;;;;;;;8358454;28;20128;-95
2022/10/29 06:03:46;;;;;;;17.15;9.18;;;;;;;;;;8363608;28;20055;-89
2022/10/29 06:07:55;;;;;;;18.83;9.45;;;;;;;;;;8364527;28;20417;-86
2022/10/29 06:11:57;;;;;;;14.13;7.93;;;;;;;;;;8364350;28;20052;-85
2022/10/29 06:16:00;;;;;;;17.35;10.02;;;;;;;;;;8355406;28;20111;-93
2022/10/29 06:20:03;;;;;;;18.75;11.15;;;;;;;;;;8363718;28;20128;-87
2022/10/29 06:24:09;;;;;;;24.60;11.80;;;;;;;;;;8363803;28;20106;-88
2022/10/29 06:28:14;;;;;;;25.98;15.38;;;;;;;;;;8335908;28;20564;-92
2022/10/29 06:32:16;;;;;;;16.48;9.30;;;;;;;;;;8338962;28;20493;-88
2022/10/29 06:36:19;;;;;;;17.58;9.27;;;;;;;;;;8344870;28;20041;-88
2022/10/29 06:40:23;;;;;;;20.35;12.27;;;;;;;;;;8349907;28;20231;-89
2022/10/29 06:44:26;;;;;;;33.90;16.70;;;;;;;;;;8352491;28;20053;-87
2022/10/29 06:48:31;;;;;;;25.80;14.20;;;;;;;;;;8346417;28;20044;-87
2022/10/29 06:52:33;;;;;;;18.80;10.43;;;;;;;;;;8345889;28;20049;-90
2022/10/29 06:56:38;;;;;;;30.73;15.15;;;;;;;;;;8351882;28;20095;-87
2022/10/29 07:00:43;;;;;;;15.48;7.38;;;;;;;;;;8351152;28;20492;-86
2022/10/29 07:04:48;;;;;;;20.15;8.75;;;;;;;;;;8356845;28;20136;-87
2022/10/29 07:08:50;;;;;;;13.50;7.13;;;;;;;;;;8355233;28;20116;-87
2022/10/29 07:12:54;;;;;;;13.82;7.10;;;;;;;;;;8356088;28;20475;-89
2022/10/29 07:16:56;;;;;;;17.00;6.85;;;;;;;;;;8352476;28;20091;-88
2022/10/29 07:20:59;;;;;;;12.75;7.57;;;;;;;;;;8353258;28;20060;-90
2022/10/29 07:25:01;;;;;;;17.17;8.05;;;;;;;;;;8358839;28;20473;-87
2022/10/29 07:29:05;;;;;;;14.65;7.90;;;;;;;;;;8355308;28;20131;-93
2022/10/29 07:33:08;;;;;;;10.50;6.55;;;;;;;;;;8361497;28;20052;-96
2022/10/29 07:37:10;;;;;;;23.38;10.27;;;;;;;;;;8364359;28;20051;-86
2022/10/29 07:41:13;;;;;;;9.93;5.70;;;;;;;;;;8353081;28;20041;-86
2022/10/29 07:45:17;;;;;;;10.38;6.10;;;;;;;;;;8370010;28;20049;-95
2022/10/29 07:49:19;;;;;;;9.23;5.03;;;;;;;;;;8369130;28;20049;-90
2022/10/29 07:53:22;;;;;;;10.05;5.40;;;;;;;;;;8370037;28;20146;-94
2022/10/29 07:57:24;;;;;;;12.32;5.88;;;;;;;;;;8369150;28;20056;-89
2022/10/29 08:01:28;;;;;;;11.50;5.25;;;;;;;;;;8369054;28;20057;-90
2022/10/29 08:05:31;;;;;;;10.50;5.63;;;;;;;;;;8355534;28;20123;-94
2022/10/29 08:09:33;;;;;;;11.10;5.60;;;;;;;;;;8369495;28;20102;-86
2022/10/29 08:13:36;;;;;;;11.15;4.88;;;;;;;;;;8369467;28;20463;-96
2022/10/29 08:17:40;;;;;;;10.77;5.68;;;;;;;;;;8369105;28;20396;-94
2022/10/29 08:21:42;;;;;;;12.40;5.93;;;;;;;;;;8369458;28;20390;-95
2022/10/29 08:25:45;;;;;;;9.32;4.93;;;;;;;;;;8368774;28;20049;-91
2022/10/29 08:29:47;;;;;;;9.85;4.88;;;;;;;;;;8368298;28;20056;-93
2022/10/29 08:33:55;;;;;;;12.13;6.68;;;;;;;;;;8368344;28;20045;-94
2022/10/29 08:37:59;;;;;;;13.82;5.55;;;;;;;;;;8367823;28;20061;-94
2022/10/29 08:42:15;;;;;;;8.93;4.68;;;;;;;;;;8367420;28;20109;-95
2022/10/29 08:46:21;;;;;;;9.60;5.05;;;;;;;;;;8367752;28;20057;-89
2022/10/29 08:50:30;;;;;;;10.48;4.80;;;;;;;;;;8368436;28;20687;-87
2022/10/29 08:54:38;;;;;;;12.43;6.72;;;;;;;;;;8365045;28;20169;-85
2022/10/29 08:58:47;;;;;;;14.50;6.65;;;;;;;;;;8367358;28;20041;-94
2022/10/29 09:02:54;;;;;;;13.30;5.28;;;;;;;;;;8366813;28;20492;-89
2022/10/29 09:07:32;;;;;;;12.90;5.18;;;;;;;;;;8353446;28;20059;-94
2022/10/29 09:11:51;;;;;;;14.88;5.28;;;;;;;;;;8359079;28;20064;-95
2022/10/29 09:16:17;;;;;;;10.13;5.03;;;;;;;;;;8368241;28;20055;-95
2022/10/29 09:20:29;;;;;;;12.15;6.97;;;;;;;;;;8375516;28;20469;-93
2022/10/29 09:24:39;;;;;;;12.15;5.35;;;;;;;;;;8374260;28;20047;-94
2022/10/29 09:28:54;;;;;;;9.82;4.82;;;;;;;;;;8374630;28;20048;-87
2022/10/29 09:33:00;;;;;;;11.65;4.95;;;;;;;;;;8379382;28;20064;-91
2022/10/29 09:37:12;;;;;;;12.50;5.65;;;;;;;;;;8373926;28;20513;-89
2022/10/29 09:41:21;;;;;;;13.10;5.35;;;;;;;;;;8373168;28;20068;-94
2022/10/29 09:45:37;;;;;;;12.38;5.38;;;;;;;;;;8362430;28;20041;-85
2022/10/29 09:49:58;;;;;;;12.32;5.43;;;;;;;;;;8354346;28;20366;-88
2022/10/29 09:54:09;;;;;;;16.00;5.70;;;;;;;;;;8353147;28;20057;-92
2022/10/29 09:58:20;;;;;;;13.85;5.50;;;;;;;;;;8352837;28;20037;-91
2022/10/29 10:02:30;;;;;;;12.52;5.78;;;;;;;;;;8351647;28;20049;-95
2022/10/29 10:07:04;;;;;;;10.95;5.53;;;;;;;;;;8346950;28;20483;-93
2022/10/29 10:11:19;;;;;;;9.90;4.97;;;;;;;;;;8352029;28;20131;-88
2022/10/29 10:15:28;;;;;;;15.70;5.45;;;;;;;;;;8357096;28;20041;-96
2022/10/29 10:19:32;;;;;;;15.63;5.68;;;;;;;;;;8363262;28;20068;-89
2022/10/29 10:23:47;;;;;;;14.60;5.72;;;;;;;;;;8360074;28;20041;-92
2022/10/29 10:27:50;;;;;;;12.85;6.15;;;;;;;;;;8378335;28;20064;-90
2022/10/29 10:32:16;;;;;;;13.82;5.95;;;;;;;;;;8383239;28;20052;-90
2022/10/29 10:36:40;;;;;;;11.35;5.68;;;;;;;;;;8383392;28;20054;-87
2022/10/29 10:40:44;;;;;;;16.65;5.75;;;;;;;;;;8371200;28;20078;-96
2022/10/29 10:44:51;;;;;;;15.93;5.82;;;;;;;;;;8364743;28;20045;-90
2022/10/29 10:49:01;;;;;;;19.30;6.40;;;;;;;;;;8351897;28;20051;-92
2022/10/29 10:53:13;;;;;;;14.13;5.35;;;;;;;;;;8371853;28;20101;-87
2022/10/29 10:57:24;;;;;;;14.15;5.68;;;;;;;;;;8379186;28;20113;-85
2022/10/29 11:01:37;;;;;;;13.27;6.10;;;;;;;;;;8382053;28;20083;-84
2022/10/29 11:06:03;;;;;;;12.98;5.80;;;;;;;;;;8373681;28;20520;-88
2022/10/29 11:10:12;;;;;;;13.95;5.45;;;;;;;;;;8368269;28;20045;-87
2022/10/29 11:14:22;;;;;;;19.27;5.95;;;;;;;;;;8356640;28;20076;-87
2022/10/29 11:18:36;;;;;;;14.80;5.80;;;;;;;;;;8354907;28;20053;-90
2022/10/29 11:22:55;;;;;;;13.25;5.18;;;;;;;;;;8361470;28;20120;-87
2022/10/29 11:27:11;;;;;;;13.00;5.22;;;;;;;;;;8361238;28;20053;-88
2022/10/29 11:31:27;;;;;;;12.40;5.78;;;;;;;;;;8368541;28;20059;-92
2022/10/29 11:35:40;;;;;;;10.73;5.57;;;;;;;;;;8363172;28;20155;-87
2022/10/29 11:39:58;;;;;;;10.27;5.28;;;;;;;;;;8357526;28;20421;-90
2022/10/29 11:44:16;;;;;;;13.60;4.75;;;;;;;;;;8364975;28;20049;-88
2022/10/29 11:48:34;;;;;;;18.60;6.35;;;;;;;;;;8370967;28;20124;-86
2022/10/29 11:52:44;;;;;;;13.73;5.20;;;;;;;;;;8374484;28;20045;-86
2022/10/29 11:56:55;;;;;;;12.55;5.93;;;;;;;;;;8371372;28;20468;-93
2022/10/29 12:01:28;;;;;;;13.05;5.30;;;;;;;;;;8367002;28;20100;-90
2022/10/29 12:05:46;;;;;;;15.13;5.63;;;;;;;;;;8368217;28;20051;-86
2022/10/29 12:10:08;;;;;;;12.82;5.35;;;;;;;;;;8371282;28;20037;-92
2022/10/29 12:14:25;;;;;;;12.43;5.30;;;;;;;;;;8376725;28;20114;-89
2022/10/29 12:18:36;;;;;;;15.57;5.05;;;;;;;;;;8363437;28;20060;-88
2022/10/29 12:22:48;;;;;;;13.70;5.35;;;;;;;;;;8362990;28;20044;-87
2022/10/29 12:27:00;;;;;;;11.27;5.65;;;;;;;;;;8358115;28;20052;-86
2022/10/29 12:31:29;;;;;;;9.77;4.93;;;;;;;;;;8364570;28;20438;-89
2022/10/29 12:35:42;;;;;;;11.70;5.43;;;;;;;;;;8370343;28;20097;-90
2022/10/29 12:39:56;;;;;;;10.13;3.83;;;;;;;;;;8375006;28;20061;-93
2022/10/29 12:44:11;;;;;;;9.60;5.25;;;;;;;;;;8362272;28;20056;-90
2022/10/29 12:48:22;;;;;;;13.52;5.07;;;;;;;;;;8378991;28;20060;-92
2022/10/29 12:52:35;;;;;;;11.07;5.80;;;;;;;;;;8382892;28;20099;-90
2022/10/29 12:56:40;;;;;;;11.93;5.35;;;;;;;;;;8382673;28;20091;-88
2022/10/29 13:00:50;;;;;;;10.95;5.88;;;;;;;;;;8376599;28;20124;-89
2022/10/29 13:05:35;;;;;;;9.82;5.10;;;;;;;;;;8380979;28;20144;-93
2022/10/29 13:09:43;;;;;;;13.10;5.22;;;;;;;;;;8369611;28;20045;-91
2022/10/29 13:13:56;;;;;;;11.60;5.72;;;;;;;;;;8387713;28;20041;-88
2022/10/29 13:18:16;;;;;;;13.80;5.38;;;;;;;;;;8380116;28;20094;-90
2022/10/29 13:22:52;;;;;;;8.98;4.88;;;;;;;;;;8385401;28;20099;-91
2022/10/29 13:27:00;;;;;;;13.40;5.38;;;;;;;;;;8371796;28;20049;-91
2022/10/29 13:31:45;;;;;;;12.80;5.00;;;;;;;;;;8366406;28;20536;-86
2022/10/29 13:35:57;;;;;;;11.35;5.47;;;;;;;;;;8365839;28;20060;-85
2022/10/29 13:40:40;;;;;;;15.25;5.50;;;;;;;;;;8374982;28;20045;-95
2022/10/29 13:44:49;;;;;;;15.80;5.38;;;;;;;;;;8374942;28;20457;-85
2022/10/29 13:48:54;;;;;;;11.95;5.50;;;;;;;;;;8364591;28;20137;-87
2022/10/29 13:53:00;;;;;;;11.65;5.10;;;;;;;;;;8347989;28;20045;-88
2022/10/29 13:57:08;;;;;;;11.55;5.22;;;;;;;;;;8365279;28;20048;-93
2022/10/29 14:01:31;;;;;;;13.23;5.80;;;;;;;;;;8373318;28;20048;-88
2022/10/29 14:05:47;;;;;;;8.98;4.97;;;;;;;;;;8380140;28;20046;-93
2022/10/29 14:10:03;;;;;;;17.20;6.00;;;;;;;;;;8377042;28;20120;-88
2022/10/29 14:14:19;;;;;;;12.52;5.65;;;;;;;;;;8387237;28;20048;-89
2022/10/29 14:18:28;;;;;;;12.93;6.55;;;;;;;;;;8373449;28;20053;-85
2022/10/29 14:22:36;;;;;;;12.27;6.13;;;;;;;;;;8352810;28;20079;-93
2022/10/29 14:26:45;;;;;;;11.57;6.35;;;;;;;;;;8364874;28;20052;-87
2022/10/29 14:31:02;;;;;;;12.30;5.53;;;;;;;;;;8390260;28;20045;-94
2022/10/29 14:35:09;;;;;;;15.50;6.85;;;;;;;;;;8369559;28;20128;-83
2022/10/29 14:39:20;;;;;;;12.55;6.10;;;;;;;;;;8361218;28;20041;-85
2022/10/29 14:43:29;;;;;;;13.55;6.07;;;;;;;;;;8360376;28;20127;-85
2022/10/29 14:47:38;;;;;;;13.00;6.45;;;;;;;;;;8375670;28;20120;-87
2022/10/29 14:51:51;;;;;;;16.25;7.32;;;;;;;;;;8361936;28;20046;-86
2022/10/29 14:55:58;;;;;;;14.23;6.25;;;;;;;;;;8367543;28;20052;-89
2022/10/29 15:00:05;;;;;;;15.50;7.35;;;;;;;;;;8377203;28;20045;-85
2022/10/29 15:09:06;;;;;;;16.10;8.40;;;;;;;;;;8346052;28;20041;-86
2022/10/29 15:13:28;;;;;;;16.17;8.57;;;;;;;;;;8337277;28;20638;-85
2022/10/29 15:18:02;;;;;;;15.63;8.80;;;;;;;;;;8347895;28;20057;-87
2022/10/29 15:22:11;;;;;;;16.52;8.93;;;;;;;;;;8347570;28;20049;-87
2022/10/29 15:26:28;;;;;;;16.02;8.57;;;;;;;;;;8337096;28;20045;-86
2022/10/29 15:30:55;;;;;;;20.08;8.90;;;;;;;;;;8343716;28;20521;-88
2022/10/29 15:35:01;;;;;;;17.08;9.07;;;;;;;;;;8353246;28;20053;-85
2022/10/29 15:39:31;;;;;;;15.35;8.52;;;;;;;;;;8318262;28;20046;-86
2022/10/29 15:43:58;;;;;;;17.80;9.73;;;;;;;;;;8340896;28;20095;-85
2022/10/29 15:48:34;;;;;;;15.18;8.93;;;;;;;;;;8312109;28;20042;-84
2022/10/29 15:52:43;;;;;;;14.35;9.13;;;;;;;;;;8335536;28;20072;-86
2022/10/29 15:56:55;;;;;;;16.80;8.48;;;;;;;;;;8344822;28;20505;-87
2022/10/29 16:01:03;;;;;;;16.63;9.10;;;;;;;;;;8274091;28;20062;-86
2022/10/29 16:05:18;;;;;;;15.90;8.57;;;;;;;;;;8350766;28;20049;-93
2022/10/29 16:09:24;;;;;;;17.90;9.35;;;;;;;;;;8336407;28;20485;-85
2022/10/29 16:13:30;;;;;;;18.73;11.48;;;;;;;;;;8380548;28;20064;-89
2022/10/29 16:17:35;;;;;;;22.02;10.73;;;;;;;;;;8384902;28;20041;-87
2022/10/29 16:21:40;;;;;;;19.85;10.77;;;;;;;;;;8388917;28;20071;-94
2022/10/29 16:25:44;;;;;;;21.40;10.52;;;;;;;;;;8390439;28;20041;-88
2022/10/29 16:29:48;;;;;;;20.27;10.23;;;;;;;;;;8388854;28;20128;-88
2022/10/29 16:33:54;;;;;;;20.85;10.60;;;;;;;;;;8385639;28;20088;-93
2022/10/29 16:38:01;;;;;;;18.15;9.45;;;;;;;;;;8384099;28;20052;-87
2022/10/29 16:42:05;;;;;;;15.95;9.50;;;;;;;;;;8389074;28;20102;-86
2022/10/29 16:46:10;;;;;;;29.55;15.27;;;;;;;;;;8367400;28;20503;-91
2022/10/29 16:50:19;;;;;;;26.80;13.40;;;;;;;;;;8368229;28;20480;-93
2022/10/29 16:54:22;;;;;;;24.08;11.68;;;;;;;;;;8364486;28;20569;-86
2022/10/29 16:58:24;;;;;;;43.17;19.58;;;;;;;;;;8364364;28;20045;-85
2022/10/29 17:02:32;;;;;;;57.72;29.60;;;;;;;;;;8387228;28;20057;-86
2022/10/29 17:06:38;;;;;;;50.20;24.20;;;;;;;;;;8374483;28;20151;-87
2022/10/29 17:10:41;;;;;;;65.05;27.85;;;;;;;;;;8379147;28;20052;-88
2022/10/29 17:14:44;;;;;;;52.90;28.08;;;;;;;;;;8375948;28;20045;-86
2022/10/29 17:18:49;;;;;;;64.25;35.42;;;;;;;;;;8368185;28;20108;-88
2022/10/29 17:22:54;;;;;;;126.43;63.20;;;;;;;;;;8373527;28;20076;-88
2022/10/29 17:26:58;;;;;;;98.05;48.63;;;;;;;;;;8379673;28;20095;-91
2022/10/29 17:31:05;;;;;;;81.70;42.20;;;;;;;;;;8373331;28;20180;-85
2022/10/29 17:35:10;;;;;;;67.07;31.30;;;;;;;;;;8357092;28;20036;-86
2022/10/29 17:39:14;;;;;;;47.67;24.50;;;;;;;;;;8379215;28;20056;-93
2022/10/29 17:43:17;;;;;;;38.25;20.45;;;;;;;;;;8363862;28;20049;-90
2022/10/29 17:47:20;;;;;;;52.78;27.00;;;;;;;;;;8357519;28;20056;-88
2022/10/29 17:51:23;;;;;;;46.88;24.80;;;;;;;;;;8356463;28;20044;-89
2022/10/29 17:55:28;;;;;;;38.50;19.23;;;;;;;;;;8361485;28;20817;-93
2022/10/29 17:59:30;;;;;;;47.00;21.95;;;;;;;;;;8354712;28;20041;-87
2022/10/29 18:03:33;;;;;;;39.13;19.73;;;;;;;;;;8367515;28;20451;-92
2022/10/29 18:07:35;;;;;;;39.05;20.58;;;;;;;;;;8364644;28;20063;-90
2022/10/29 18:11:39;;;;;;;45.92;23.33;;;;;;;;;;8358321;28;20056;-87
2022/10/29 18:15:42;;;;;;;52.65;24.23;;;;;;;;;;8359315;28;20044;-89
2022/10/29 18:19:45;;;;;;;62.05;26.25;;;;;;;;;;8359625;28;20080;-93
2022/10/29 18:23:48;;;;;;;56.47;28.25;;;;;;;;;;8358448;28;20045;-89
2022/10/29 18:27:54;;;;;;;63.40;28.00;;;;;;;;;;8358373;28;20084;-94
2022/10/29 18:31:58;;;;;;;50.05;24.30;;;;;;;;;;8364947;28;20052;-93
2022/10/29 18:36:03;;;;;;;46.53;22.50;;;;;;;;;;8363071;28;20454;-88
2022/10/29 18:40:15;;;;;;;43.05;21.77;;;;;;;;;;8358929;28;20481;-87
2022/10/29 18:44:24;;;;;;;36.25;16.83;;;;;;;;;;8351812;28;20106;-88
2022/10/29 18:48:29;;;;;;;33.63;17.50;;;;;;;;;;8357753;28;20049;-91
2022/10/29 18:52:33;;;;;;;39.33;18.35;;;;;;;;;;8355918;28;20577;-92
2022/10/29 18:56:36;;;;;;;32.42;18.80;;;;;;;;;;8357034;28;20049;-91
2022/10/29 19:00:45;;;;;;;34.10;18.20;;;;;;;;;;8356476;28;20041;-88
2022/10/29 19:04:58;;;;;;;35.17;17.58;;;;;;;;;;8359990;28;20049;-94
2022/10/29 19:09:07;;;;;;;30.60;15.13;;;;;;;;;;8369267;28;20044;-89
2022/10/29 19:13:14;;;;;;;24.00;13.02;;;;;;;;;;8348471;28;20123;-89
2022/10/29 19:17:40;;;;;;;35.20;18.73;;;;;;;;;;8357034;28;20041;-87
2022/10/29 19:21:43;;;;;;;38.90;20.17;;;;;;;;;;8358888;28;20044;-86
2022/10/29 19:31:03;;;;;;;94.28;42.25;;;;;;;;;;8363820;28;20405;-86
2022/10/29 19:35:21;;;;;;;73.60;33.50;;;;;;;;;;8355062;28;20119;-95
2022/10/29 19:39:46;;;;;;;91.53;39.40;;;;;;;;;;8372027;28;20136;-86
2022/10/29 19:44:26;;;;;;;42.03;22.60;;;;;;;;;;8371689;28;20114;-92
2022/10/29 19:48:31;;;;;;;56.55;26.95;;;;;;;;;;8369720;28;20552;-89
2022/10/29 19:52:35;;;;;;;55.13;25.92;;;;;;;;;;8369404;28;20049;-94
2022/10/29 19:56:42;;;;;;;55.38;24.30;;;;;;;;;;8362014;28;20112;-86
2022/10/29 20:00:46;;;;;;;41.05;20.80;;;;;;;;;;8376255;28;20045;-90
2022/10/29 20:04:49;;;;;;;41.75;21.38;;;;;;;;;;8373245;28;20126;-91
2022/10/29 20:08:53;;;;;;;38.38;18.55;;;;;;;;;;8370535;28;20133;-87
2022/10/29 20:12:55;;;;;;;26.85;17.02;;;;;;;;;;8355323;28;20060;-93
2022/10/29 20:16:59;;;;;;;34.55;18.70;;;;;;;;;;8368105;28;20453;-94
2022/10/29 20:21:02;;;;;;;31.27;17.10;;;;;;;;;;8363546;28;20404;-90
2022/10/29 20:25:10;;;;;;;38.33;17.58;;;;;;;;;;8370003;28;20055;-88
2022/10/29 20:29:14;;;;;;;33.60;17.90;;;;;;;;;;8360823;28;20099;-90
2022/10/29 20:33:17;;;;;;;37.95;17.27;;;;;;;;;;8346643;28;20045;-89
2022/10/29 20:37:19;;;;;;;32.72;16.27;;;;;;;;;;8362728;28;20098;-90
2022/10/29 20:41:24;;;;;;;26.63;15.18;;;;;;;;;;8363894;28;20041;-92
2022/10/29 20:45:26;;;;;;;34.20;17.52;;;;;;;;;;8346569;28;20049;-86
2022/10/29 20:49:29;;;;;;;34.88;16.65;;;;;;;;;;8361452;28;20064;-89
2022/10/29 20:53:31;;;;;;;32.45;16.63;;;;;;;;;;8368396;28;20059;-86
2022/10/29 20:57:36;;;;;;;31.67;16.88;;;;;;;;;;8368222;28;20124;-85
2022/10/29 21:01:38;;;;;;;40.95;18.77;;;;;;;;;;8367696;28;20455;-96
2022/10/29 21:05:41;;;;;;;32.22;18.08;;;;;;;;;;8361809;28;20111;-86
2022/10/29 21:09:43;;;;;;;35.90;18.58;;;;;;;;;;8368912;28;20068;-93
2022/10/29 21:13:47;;;;;;;34.22;18.30;;;;;;;;;;8371071;28;20062;-88
2022/10/29 21:17:50;;;;;;;36.08;19.52;;;;;;;;;;8372357;28;20037;-87
2022/10/29 21:21:52;;;;;;;33.20;17.35;;;;;;;;;;8373831;28;20048;-93
2022/10/29 21:25:54;;;;;;;30.70;16.88;;;;;;;;;;8357684;28;20519;-94
2022/10/29 21:29:58;;;;;;;38.70;19.10;;;;;;;;;;8371124;28;20455;-93
2022/10/29 21:34:01;;;;;;;36.10;18.23;;;;;;;;;;8365422;28;20071;-89
2022/10/29 21:38:03;;;;;;;41.33;18.33;;;;;;;;;;8364936;28;20050;-88
2022/10/29 21:42:06;;;;;;;32.90;17.98;;;;;;;;;;8358164;28;20045;-95
2022/10/29 21:46:10;;;;;;;34.15;16.90;;;;;;;;;;8369637;28;20041;-86
2022/10/29 21:50:12;;;;;;;38.20;19.00;;;;;;;;;;8364961;28;20049;-87
2022/10/29 21:54:15;;;;;;;46.33;19.75;;;;;;;;;;8373424;28;20072;-90
2022/10/29 21:58:17;;;;;;;48.30;21.52;;;;;;;;;;8369823;28;20051;-86
2022/10/29 22:02:21;;;;;;;48.83;22.85;;;;;;;;;;8363418;28;20409;-96
2022/10/29 22:06:25;;;;;;;53.80;22.27;;;;;;;;;;8357133;28;20123;-93
2022/10/29 22:10:28;;;;;;;47.90;22.25;;;;;;;;;;8366334;28;20496;-90
2022/10/29 22:14:30;;;;;;;52.47;23.13;;;;;;;;;;8366143;28;20045;-85
2022/10/29 22:18:34;;;;;;;47.95;22.13;;;;;;;;;;8369738;28;20106;-85
2022/10/29 22:22:37;;;;;;;43.80;22.08;;;;;;;;;;8369251;28;20045;-87
2022/10/29 22:26:39;;;;;;;46.53;20.10;;;;;;;;;;8367983;28;20045;-93
2022/10/29 22:30:41;;;;;;;43.80;21.02;;;;;;;;;;8360996;28;20056;-96
2022/10/29 22:34:45;;;;;;;45.17;21.02;;;;;;;;;;8367067;28;20045;-86
2022/10/29 22:38:53;;;;;;;42.83;19.48;;;;;;;;;;8368825;28;20037;-87
2022/10/29 22:42:55;;;;;;;42.10;20.05;;;;;;;;;;8367955;28;20048;-92
2022/10/29 22:46:58;;;;;;;37.40;19.60;;;;;;;;;;8367250;28;20068;-86
2022/10/29 22:51:04;;;;;;;33.97;19.42;;;;;;;;;;8364386;28;20052;-85
2022/10/29 22:55:07;;;;;;;40.40;19.55;;;;;;;;;;8364892;28;20044;-94
2022/10/29 22:59:10;;;;;;;39.25;17.70;;;;;;;;;;8350318;28;20534;-85
2022/10/29 23:03:12;;;;;;;34.63;17.30;;;;;;;;;;8361404;28;20069;-93
2022/10/29 23:07:16;;;;;;;26.55;16.33;;;;;;;;;;8364123;28;20051;-89
2022/10/29 23:11:20;;;;;;;32.92;15.95;;;;;;;;;;8363775;28;20045;-90
2022/10/29 23:15:23;;;;;;;24.13;14.88;;;;;;;;;;8374934;28;20049;-86
2022/10/29 23:19:25;;;;;;;28.70;14.95;;;;;;;;;;8373989;28;20044;-88
2022/10/29 23:23:30;;;;;;;32.25;15.20;;;;;;;;;;8367249;28;20041;-87
2022/10/29 23:27:32;;;;;;;25.88;15.10;;;;;;;;;;8361821;28;20072;-88
2022/10/29 23:31:35;;;;;;;27.52;13.85;;;;;;;;;;8348043;28;20055;-88
2022/10/29 23:35:37;;;;;;;28.73;15.00;;;;;;;;;;8370228;28;20412;-95
2022/10/29 23:39:41;;;;;;;29.98;15.93;;;;;;;;;;8369776;28;20055;-93
2022/10/29 23:43:44;;;;;;;32.88;15.35;;;;;;;;;;8353416;28;20037;-95
2022/10/29 23:47:46;;;;;;;22.58;14.02;;;;;;;;;;8365322;28;20075;-86
2022/10/29 23:51:49;;;;;;;27.02;14.90;;;;;;;;;;8369782;28;20106;-86
2022/10/29 23:55:53;;;;;;;31.02;15.15;;;;;;;;;;8373305;28;20055;-87
2022/10/29 23:59:55;;;;;;;29.55;15.05;;;;;;;;;;8368215;28;20052;-86
